createdAt,value
2019-06-04T00:00:46.718Z,99.9
2019-06-04T00:01:53.653Z,99.9
2019-06-04T00:03:03.666Z,99.9
2019-06-04T00:04:12.044Z,99.9
2019-06-04T00:05:18.983Z,99.9
2019-06-04T00:06:25.916Z,99.9
2019-06-04T00:07:33.129Z,99.9
2019-06-04T00:08:40.057Z,99.9
2019-06-04T00:09:47.279Z,99.9
2019-06-04T00:10:54.522Z,99.9
2019-06-04T00:12:04.538Z,99.9
2019-06-04T00:13:13.123Z,99.9
2019-06-04T00:14:20.065Z,99.9
2019-06-04T00:15:26.996Z,99.9
2019-06-04T00:16:34.209Z,99.9
2019-06-04T00:17:41.415Z,99.9
2019-06-04T00:18:48.078Z,99.9
2019-06-04T00:19:55.280Z,99.9
2019-06-04T00:21:04.960Z,99.9
2019-06-04T00:22:13.133Z,99.9
2019-06-04T00:23:20.339Z,99.9
2019-06-04T00:24:27.555Z,99.9
2019-06-04T00:25:34.765Z,99.9
2019-06-04T00:26:41.983Z,99.9
2019-06-04T00:27:49.194Z,99.9
2019-06-04T00:28:56.175Z,99.9
2019-06-04T00:30:05.955Z,99.9
2019-06-04T00:31:14.355Z,99.9
2019-06-04T00:32:41.842Z,99.9
2019-06-04T00:33:49.047Z,99.9
2019-06-04T00:34:56.266Z,99.9
2019-06-04T00:36:04.740Z,99.9
2019-06-04T00:37:12.086Z,99.9
2019-06-04T00:38:19.018Z,99.9
2019-06-04T00:39:26.225Z,99.9
2019-06-04T00:40:33.434Z,99.9
2019-06-04T00:41:40.640Z,99.9
2019-06-04T00:42:47.571Z,99.9
2019-06-04T00:43:54.781Z,99.9
2019-06-04T00:45:05.072Z,99.9
2019-06-04T00:46:12.325Z,99.9
2019-06-04T00:47:19.535Z,99.9
2019-06-04T00:48:26.741Z,99.9
2019-06-04T00:49:33.951Z,99.9
2019-06-04T00:50:40.891Z,99.9
2019-06-04T00:51:48.102Z,99.9
2019-06-04T00:52:55.044Z,99.9
2019-06-04T00:54:05.178Z,99.9
2019-06-04T00:55:12.438Z,99.9
2019-06-04T00:56:19.367Z,99.9
2019-06-04T00:58:47.905Z,99.9
2019-06-04T00:59:54.831Z,99.9
2019-06-04T01:01:04.238Z,99.9
2019-06-04T01:02:14.192Z,99.9
2019-06-04T01:03:21.131Z,99.9
2019-06-04T01:04:28.344Z,99.9
2019-06-04T01:05:35.552Z,99.9
2019-06-04T01:06:42.770Z,99.9
2019-06-04T01:07:49.978Z,99.9
2019-06-04T01:08:57.316Z,99.9
2019-06-04T01:10:05.697Z,99.9
2019-06-04T01:11:13.984Z,99.9
2019-06-04T01:12:21.187Z,99.9
2019-06-04T01:13:28.394Z,99.9
2019-06-04T01:14:35.599Z,99.9
2019-06-04T01:15:42.808Z,99.9
2019-06-04T01:16:50.018Z,99.9
2019-06-04T01:17:58.391Z,99.9
2019-06-04T01:19:08.914Z,99.9
2019-06-04T01:20:16.265Z,99.9
2019-06-04T01:21:23.477Z,99.9
2019-06-04T01:22:30.672Z,99.9
2019-06-04T01:23:37.329Z,99.9
2019-06-04T01:24:44.262Z,99.9
2019-06-04T01:25:51.467Z,99.9
2019-06-04T01:26:59.240Z,99.9
2019-06-04T01:28:07.908Z,99.9
2019-06-04T01:29:16.623Z,99.9
2019-06-04T01:30:23.556Z,99.9
2019-06-04T01:31:30.765Z,99.9
2019-06-04T01:32:37.971Z,99.9
2019-06-04T01:33:44.908Z,99.9
2019-06-04T01:34:52.117Z,99.9
2019-06-04T01:36:00.419Z,99.9
2019-06-04T01:37:10.743Z,99.9
2019-06-04T01:38:17.952Z,99.9
2019-06-04T01:39:24.594Z,99.9
2019-06-04T01:40:31.799Z,99.9
2019-06-04T01:41:39.009Z,99.9
2019-06-04T01:42:46.211Z,99.9
2019-06-04T01:43:53.418Z,99.9
2019-06-04T01:45:01.157Z,99.9
2019-06-04T01:46:09.827Z,99.9
2019-06-04T01:47:18.444Z,99.9
2019-06-04T01:48:25.648Z,99.9
2019-06-04T01:49:32.851Z,99.9
2019-06-04T01:50:40.056Z,99.9
2019-06-04T01:51:47.262Z,99.9
2019-06-04T01:52:54.196Z,99.9
2019-06-04T01:54:02.255Z,99.9
2019-06-04T01:55:11.281Z,99.9
2019-06-04T01:56:20.013Z,99.9
2019-06-04T01:57:26.952Z,99.9
2019-06-04T01:58:34.168Z,99.9
2019-06-04T01:59:41.377Z,99.9
2019-06-04T02:00:48.315Z,99.9
2019-06-04T02:01:55.518Z,99.9
2019-06-04T02:03:03.376Z,99.9
2019-06-04T02:04:13.719Z,99.9
2019-06-04T02:05:20.958Z,99.9
2019-06-04T02:06:27.621Z,99.9
2019-06-04T02:07:34.823Z,99.9
2019-06-04T02:08:42.036Z,99.9
2019-06-04T02:10:56.219Z,99.9
2019-06-04T02:12:06.638Z,99.9
2019-06-04T02:13:24.405Z,99.9
2019-06-04T02:14:31.332Z,99.9
2019-06-04T02:15:38.279Z,99.9
2019-06-04T02:16:45.485Z,99.9
2019-06-04T02:17:52.768Z,99.9
2019-06-04T02:19:00.110Z,99.9
2019-06-04T02:20:07.969Z,99.9
2019-06-04T02:21:19.534Z,99.9
2019-06-04T02:22:26.472Z,99.9
2019-06-04T02:23:33.698Z,99.9
2019-06-04T02:24:40.918Z,99.9
2019-06-04T02:25:48.133Z,99.9
2019-06-04T02:26:55.350Z,99.9
2019-06-04T02:28:02.577Z,99.9
2019-06-04T02:29:10.238Z,99.9
2019-06-04T02:30:20.711Z,99.9
2019-06-04T02:31:27.972Z,99.9
2019-06-04T02:33:01.789Z,99.9
2019-06-04T02:34:40.427Z,99.9
2019-06-04T02:35:47.630Z,99.9
2019-06-04T02:36:54.833Z,99.9
2019-06-04T02:38:02.043Z,99.9
2019-06-04T02:39:09.868Z,99.9
2019-06-04T02:40:18.322Z,99.9
2019-06-04T02:41:25.533Z,99.9
2019-06-04T02:42:32.742Z,99.9
2019-06-04T02:43:39.676Z,99.9
2019-06-04T02:44:46.880Z,99.9
2019-06-04T02:45:54.094Z,99.9
2019-06-04T02:47:01.035Z,99.9
2019-06-04T02:48:08.278Z,99.9
2019-06-04T02:49:19.261Z,99.9
2019-06-04T02:50:26.542Z,99.9
2019-06-04T02:51:33.204Z,99.9
2019-06-04T02:52:39.877Z,99.9
2019-06-04T02:53:47.094Z,99.9
2019-06-04T02:54:54.304Z,99.9
2019-06-04T02:56:01.510Z,99.9
2019-06-04T02:57:09.584Z,99.9
2019-06-04T02:58:18.932Z,99.9
2019-06-04T02:59:26.357Z,99.9
2019-06-04T03:00:33.572Z,99.9
2019-06-04T03:01:40.580Z,99.9
2019-06-04T03:02:47.785Z,99.9
2019-06-04T03:03:54.989Z,99.9
2019-06-04T03:05:02.193Z,99.9
2019-06-04T03:06:11.516Z,99.9
2019-06-04T03:07:23.108Z,99.9
2019-06-04T03:08:30.318Z,99.9
2019-06-04T03:09:37.278Z,99.9
2019-06-04T03:10:43.941Z,99.9
2019-06-04T03:11:51.152Z,99.9
2019-06-04T03:12:57.861Z,99.9
2019-06-04T03:14:05.134Z,99.9
2019-06-04T03:15:13.627Z,99.9
2019-06-04T03:16:22.067Z,99.9
2019-06-04T03:17:29.274Z,99.9
2019-06-04T03:18:36.480Z,99.9
2019-06-04T03:19:43.712Z,99.9
2019-06-04T03:20:51.058Z,99.9
2019-06-04T03:21:58.362Z,99.9
2019-06-04T03:23:05.573Z,99.9
2019-06-04T03:24:12.793Z,99.9
2019-06-04T03:25:21.259Z,99.9
2019-06-04T03:26:28.453Z,99.9
2019-06-04T03:27:35.660Z,99.9
2019-06-04T03:28:42.867Z,99.9
2019-06-04T03:29:50.079Z,99.9
2019-06-04T03:30:57.289Z,99.9
2019-06-04T03:32:04.497Z,99.9
2019-06-04T03:33:12.740Z,99.9
2019-06-04T03:34:59.700Z,99.9
2019-06-04T03:36:06.966Z,99.9
2019-06-04T03:37:14.615Z,99.9
2019-06-04T03:38:23.221Z,99.9
2019-06-04T03:39:30.434Z,99.9
2019-06-04T03:40:37.358Z,99.9
2019-06-04T03:41:44.568Z,99.9
2019-06-04T03:42:51.771Z,99.9
2019-06-04T03:43:58.975Z,99.9
2019-06-04T03:45:05.913Z,99.9
2019-06-04T03:46:13.975Z,99.9
2019-06-04T03:47:24.273Z,99.9
2019-06-04T03:48:31.500Z,99.9
2019-06-04T03:49:38.728Z,99.9
2019-06-04T03:50:45.925Z,99.9
2019-06-04T03:51:52.857Z,99.9
2019-06-04T03:52:59.795Z,99.9
2019-06-04T03:54:06.727Z,99.9
2019-06-04T03:55:14.696Z,99.9
2019-06-04T03:56:23.513Z,99.9
2019-06-04T03:57:33.057Z,99.9
2019-06-04T03:58:40.269Z,99.9
2019-06-04T03:59:47.467Z,99.9
2019-06-04T04:00:54.392Z,99.9
2019-06-04T04:02:01.407Z,99.9
2019-06-04T04:03:08.334Z,99.9
2019-06-04T04:04:16.400Z,99.9
2019-06-04T04:05:25.104Z,99.9
2019-06-04T04:06:32.342Z,99.9
2019-06-04T04:07:39.279Z,99.9
2019-06-04T04:08:46.495Z,99.9
2019-06-04T04:09:53.704Z,99.9
2019-06-04T04:11:00.642Z,99.9
2019-06-04T04:12:07.854Z,99.9
2019-06-04T04:13:16.539Z,99.9
2019-06-04T04:14:24.886Z,99.9
2019-06-04T04:15:32.169Z,99.9
2019-06-04T04:16:39.376Z,99.9
2019-06-04T04:17:46.584Z,99.9
2019-06-04T04:18:53.795Z,99.9
2019-06-04T04:20:01.001Z,99.9
2019-06-04T04:21:08.212Z,99.9
2019-06-04T04:22:15.940Z,99.9
2019-06-04T04:23:25.597Z,99.9
2019-06-04T04:24:34.267Z,99.9
2019-06-04T04:25:41.479Z,99.9
2019-06-04T04:26:48.686Z,99.9
2019-06-04T04:27:55.897Z,99.9
2019-06-04T04:29:03.101Z,99.9
2019-06-04T04:30:09.777Z,99.9
2019-06-04T04:31:17.711Z,99.9
2019-06-04T04:32:26.095Z,99.9
2019-06-04T04:33:33.304Z,99.9
2019-06-04T04:34:40.236Z,99.9
2019-06-04T04:35:47.443Z,99.9
2019-06-04T04:36:54.375Z,99.9
2019-06-04T04:38:01.585Z,99.9
2019-06-04T04:39:08.797Z,99.9
2019-06-04T04:40:16.008Z,99.9
2019-06-04T04:41:27.949Z,99.9
2019-06-04T04:42:35.190Z,99.9
2019-06-04T04:43:42.401Z,99.9
2019-06-04T04:44:49.605Z,99.9
2019-06-04T04:45:56.808Z,99.9
2019-06-04T04:47:03.824Z,99.9
2019-06-04T04:48:11.057Z,99.9
2019-06-04T04:49:20.308Z,99.9
2019-06-04T04:50:31.099Z,99.9
2019-06-04T04:51:38.042Z,99.9
2019-06-04T04:52:45.252Z,99.9
2019-06-04T04:53:52.454Z,99.9
2019-06-04T04:54:59.662Z,99.9
2019-06-04T04:56:06.594Z,99.9
2019-06-04T04:57:13.521Z,99.9
2019-06-04T04:58:21.243Z,99.9
2019-06-04T04:59:30.887Z,99.9
2019-06-04T05:00:38.186Z,99.9
2019-06-04T05:01:45.393Z,99.9
2019-06-04T05:02:52.604Z,99.9
2019-06-04T05:03:59.848Z,99.9
2019-06-04T05:05:07.061Z,99.9
2019-06-04T05:06:14.002Z,99.9
2019-06-04T05:07:22.063Z,99.9
2019-06-04T05:08:30.622Z,99.9
2019-06-04T05:09:37.826Z,99.9
2019-06-04T05:10:45.037Z,99.9
2019-06-04T05:11:52.282Z,99.9
2019-06-04T05:12:59.486Z,99.9
2019-06-04T05:14:06.687Z,99.9
2019-06-04T05:15:13.891Z,99.9
2019-06-04T05:16:21.154Z,99.9
2019-06-04T05:17:31.681Z,99.9
2019-06-04T05:18:38.718Z,99.9
2019-06-04T05:19:45.926Z,99.9
2019-06-04T05:20:53.128Z,99.9
2019-06-04T05:22:00.055Z,99.9
2019-06-04T05:23:07.554Z,99.9
2019-06-04T05:24:16.833Z,99.9
2019-06-04T05:25:23.705Z,99.9
2019-06-04T05:26:36.428Z,99.9
2019-06-04T05:27:43.634Z,99.9
2019-06-04T05:28:50.605Z,99.9
2019-06-04T05:29:57.627Z,99.9
2019-06-04T05:31:04.833Z,99.9
2019-06-04T05:32:12.042Z,99.9
2019-06-04T05:33:19.852Z,99.9
2019-06-04T05:34:28.509Z,99.9
2019-06-04T05:35:36.832Z,99.9
2019-06-04T05:36:44.035Z,99.9
2019-06-04T05:37:51.266Z,99.9
2019-06-04T05:38:58.581Z,99.9
2019-06-04T05:40:05.801Z,99.9
2019-06-04T05:41:13.015Z,99.9
2019-06-04T05:42:20.227Z,99.9
2019-06-04T05:43:28.543Z,99.9
2019-06-04T05:44:36.782Z,99.9
2019-06-04T05:45:43.712Z,99.9
2019-06-04T05:46:50.928Z,99.9
2019-06-04T05:47:58.130Z,99.9
2019-06-04T05:49:05.964Z,99.9
2019-06-04T05:50:12.989Z,99.9
2019-06-04T05:51:20.194Z,99.9
2019-06-04T05:52:31.075Z,99.9
2019-06-04T05:53:40.087Z,99.9
2019-06-04T05:54:47.294Z,99.9
2019-06-04T05:55:54.226Z,99.9
2019-06-04T05:57:01.343Z,99.9
2019-06-04T05:58:08.553Z,99.9
2019-06-04T05:59:15.497Z,99.9
2019-06-04T06:00:23.670Z,99.9
2019-06-04T06:01:36.230Z,99.9
2019-06-04T06:02:43.570Z,99.9
2019-06-04T06:03:50.845Z,99.9
2019-06-04T06:04:58.114Z,99.9
2019-06-04T06:06:05.067Z,99.9
2019-06-04T06:07:12.282Z,99.9
2019-06-04T06:08:19.526Z,99.9
2019-06-04T06:09:26.733Z,99.9
2019-06-04T06:10:36.594Z,99.9
2019-06-04T06:11:43.800Z,99.9
2019-06-04T06:12:51.004Z,99.9
2019-06-04T06:13:58.216Z,99.9
2019-06-04T06:15:09.487Z,99.9
2019-06-04T06:16:17.104Z,99.9
2019-06-04T06:17:24.310Z,99.9
2019-06-04T06:18:34.602Z,99.9
2019-06-04T06:19:42.027Z,99.9
2019-06-04T06:20:48.996Z,99.9
2019-06-04T06:21:56.295Z,99.9
2019-06-04T06:23:10.495Z,99.9
2019-06-04T06:24:28.648Z,99.9
2019-06-04T06:25:41.183Z,99.9
2019-06-04T06:26:48.411Z,99.9
2019-06-04T06:27:55.089Z,99.9
2019-06-04T06:29:03.805Z,99.9
2019-06-04T06:30:11.324Z,99.9
2019-06-04T06:31:18.752Z,99.9
2019-06-04T06:32:26.599Z,99.9
2019-06-04T06:33:37.127Z,99.9
2019-06-04T06:34:45.356Z,99.9
2019-06-04T06:35:52.287Z,99.9
2019-06-04T06:36:59.502Z,99.9
2019-06-04T06:38:06.436Z,99.9
2019-06-04T06:39:13.643Z,99.9
2019-06-04T06:40:20.885Z,99.9
2019-06-04T06:41:29.362Z,99.9
2019-06-04T06:42:39.152Z,99.9
2019-06-04T06:43:46.365Z,99.9
2019-06-04T06:44:53.583Z,99.9
2019-06-04T06:46:00.791Z,99.9
2019-06-04T06:47:08.000Z,99.9
2019-06-04T06:48:14.664Z,99.9
2019-06-04T06:49:21.601Z,99.9
2019-06-04T06:50:28.917Z,99.9
2019-06-04T06:51:37.182Z,99.9
2019-06-04T06:52:45.952Z,99.9
2019-06-04T06:53:53.163Z,99.9
2019-06-04T06:55:00.387Z,99.9
2019-06-04T06:56:07.146Z,99.9
2019-06-04T06:57:14.112Z,99.9
2019-06-04T06:58:21.037Z,99.9
2019-06-04T06:59:28.356Z,99.9
2019-06-04T07:00:36.643Z,99.9
2019-06-04T07:01:43.583Z,96.7
2019-06-04T07:02:50.800Z,99.9
2019-06-04T07:03:58.101Z,95.6
2019-06-04T07:05:05.082Z,99.9
2019-06-04T07:06:12.326Z,98.4
2019-06-04T07:07:19.538Z,97.5
2019-06-04T07:08:28.089Z,99.9
2019-06-04T07:09:39.428Z,97.9
2019-06-04T07:10:46.675Z,74.3
2019-06-04T07:11:53.930Z,99.9
2019-06-04T07:13:01.134Z,91.9
2019-06-04T07:14:08.069Z,93.6
2019-06-04T07:15:15.021Z,94.8
2019-06-04T07:16:22.243Z,80.7
2019-06-04T07:17:30.791Z,93.1
2019-06-04T07:18:43.311Z,92.8
2019-06-04T07:19:50.397Z,90
2019-06-04T07:20:57.669Z,86.4
2019-06-04T07:22:04.619Z,91.5
2019-06-04T07:23:11.829Z,96.3
2019-06-04T07:24:19.118Z,78.4
2019-06-04T07:25:26.348Z,73
2019-06-04T07:26:33.761Z,57.2
2019-06-04T07:27:45.118Z,69
2019-06-04T07:28:52.340Z,79.7
2019-06-04T07:29:59.553Z,60
2019-06-04T07:31:06.763Z,43.6
2019-06-04T07:32:13.974Z,53.2
2019-06-04T07:33:21.191Z,55.2
2019-06-04T07:34:28.414Z,64
2019-06-04T07:35:41.093Z,46.1
2019-06-04T07:36:48.477Z,35
2019-06-04T07:37:55.696Z,64.8
2019-06-04T07:39:02.955Z,53.2
2019-06-04T07:40:10.184Z,49
2019-06-04T07:41:17.393Z,57.5
2019-06-04T07:42:24.606Z,66.3
2019-06-04T07:43:32.861Z,55.6
2019-06-04T07:44:57.975Z,56.3
2019-06-04T07:46:04.923Z,53.8
2019-06-04T07:47:12.196Z,54.3
2019-06-04T07:48:32.494Z,48.6
2019-06-04T07:49:52.725Z,47.2
2019-06-04T07:50:59.983Z,46.3
2019-06-04T07:52:09.652Z,28.3
2019-06-04T07:53:17.064Z,26.5
2019-06-04T07:54:24.292Z,34
2019-06-04T07:55:32.166Z,28.4
2019-06-04T07:56:43.860Z,37
2019-06-04T07:57:51.082Z,34.1
2019-06-04T07:59:03.915Z,38.7
2019-06-04T08:00:11.131Z,17.3
2019-06-04T08:01:18.353Z,28.4
2019-06-04T08:02:32.066Z,33
2019-06-04T08:03:42.118Z,1.2
2019-06-04T08:04:52.004Z,1
2019-06-04T08:05:59.479Z,11.9
2019-06-04T08:07:09.623Z,13.8
2019-06-04T08:08:17.175Z,9.6
2019-06-04T08:09:24.394Z,11
2019-06-04T08:10:32.787Z,10.5
2019-06-04T08:11:43.933Z,1
2019-06-04T08:12:51.312Z,6.3
2019-06-04T08:13:58.524Z,1
2019-06-04T08:15:05.745Z,1
2019-06-04T08:16:12.702Z,1
2019-06-04T08:17:19.951Z,1
2019-06-04T08:18:27.161Z,1
2019-06-04T08:19:35.616Z,4.7
2019-06-04T08:20:45.533Z,9.8
2019-06-04T08:23:14.351Z,1
2019-06-04T08:24:21.569Z,1
2019-06-04T08:25:32.124Z,1
2019-06-04T08:26:45.916Z,4.3
2019-06-04T08:27:53.177Z,1
2019-06-04T08:29:00.395Z,5.3
2019-06-04T08:30:07.619Z,14
2019-06-04T08:31:14.838Z,1
2019-06-04T08:32:22.085Z,1
2019-06-04T08:33:29.302Z,1
2019-06-04T08:34:36.690Z,1
2019-06-04T08:35:51.195Z,1
2019-06-04T08:37:07.241Z,1
2019-06-04T08:38:15.187Z,1
2019-06-04T08:39:22.401Z,1
2019-06-04T08:40:29.667Z,1
2019-06-04T08:41:37.519Z,1
2019-06-04T08:42:53.090Z,1
2019-06-04T08:44:01.475Z,1
2019-06-04T08:45:09.282Z,1
2019-06-04T08:46:16.739Z,1
2019-06-04T08:47:23.685Z,1
2019-06-04T08:48:32.884Z,1
2019-06-04T08:49:43.825Z,1
2019-06-04T08:52:14.133Z,1
2019-06-04T08:53:21.343Z,1
2019-06-04T08:54:28.566Z,1
2019-06-04T08:55:36.073Z,1
2019-06-04T08:56:50.129Z,1
2019-06-04T08:57:57.344Z,1
2019-06-04T08:59:04.296Z,1
2019-06-04T09:00:11.516Z,1
2019-06-04T09:01:18.733Z,1
2019-06-04T09:02:25.991Z,1
2019-06-04T09:03:33.386Z,1
2019-06-04T09:04:42.382Z,1
2019-06-04T09:05:53.331Z,1
2019-06-04T09:07:00.543Z,1
2019-06-04T09:08:07.769Z,1
2019-06-04T09:09:15.006Z,1
2019-06-04T09:10:21.951Z,1
2019-06-04T09:11:29.165Z,1
2019-06-04T09:12:37.636Z,1
2019-06-04T09:13:49.205Z,1
2019-06-04T09:14:56.497Z,1
2019-06-04T09:16:03.600Z,1
2019-06-04T09:17:11.045Z,1
2019-06-04T09:18:18.567Z,1
2019-06-04T09:19:25.785Z,1
2019-06-04T09:20:33.089Z,1
2019-06-04T09:21:41.927Z,1
2019-06-04T09:22:57.853Z,1
2019-06-04T09:24:05.060Z,1
2019-06-04T09:25:12.299Z,1
2019-06-04T09:26:19.533Z,1
2019-06-04T09:27:26.476Z,1
2019-06-04T09:28:33.701Z,1
2019-06-04T09:29:41.180Z,1
2019-06-04T09:31:02.151Z,1
2019-06-04T09:32:11.126Z,1
2019-06-04T09:33:18.339Z,1
2019-06-04T09:34:25.560Z,1
2019-06-04T09:35:32.769Z,1
2019-06-04T09:36:40.011Z,1
2019-06-04T09:38:00.126Z,1
2019-06-04T09:39:17.559Z,1
2019-06-04T09:40:24.501Z,1
2019-06-04T09:41:31.714Z,1
2019-06-04T09:42:39.855Z,1
2019-06-04T09:43:50.314Z,1
2019-06-04T09:44:57.735Z,1
2019-06-04T09:46:04.953Z,1
2019-06-04T09:47:11.906Z,1
2019-06-04T09:48:19.143Z,1
2019-06-04T09:49:26.357Z,1
2019-06-04T09:50:33.576Z,1
2019-06-04T09:51:41.430Z,1
2019-06-04T09:52:53.432Z,1
2019-06-04T09:54:00.835Z,1
2019-06-04T09:55:07.862Z,1
2019-06-04T09:56:15.310Z,1
2019-06-04T09:57:22.546Z,1
2019-06-04T09:58:31.036Z,1
2019-06-04T09:59:38.853Z,1
2019-06-04T10:00:52.847Z,1
2019-06-04T10:02:00.122Z,1
2019-06-04T10:03:07.349Z,1
2019-06-04T10:04:14.604Z,1
2019-06-04T10:05:21.838Z,1
2019-06-04T10:06:29.088Z,1
2019-06-04T10:07:36.333Z,1
2019-06-04T10:08:43.806Z,1
2019-06-04T10:09:53.540Z,1
2019-06-04T10:11:00.759Z,1
2019-06-04T10:12:07.979Z,1
2019-06-04T10:13:15.382Z,1
2019-06-04T10:14:22.597Z,1
2019-06-04T10:15:29.611Z,1
2019-06-04T10:16:36.862Z,1
2019-06-04T10:17:45.206Z,1
2019-06-04T10:18:55.104Z,1
2019-06-04T10:20:02.316Z,1
2019-06-04T10:21:08.718Z,1
2019-06-04T10:22:15.942Z,1
2019-06-04T10:23:23.166Z,1
2019-06-04T10:24:30.105Z,1
2019-06-04T10:25:37.087Z,1
2019-06-04T10:26:44.018Z,1
2019-06-04T10:27:54.659Z,1
2019-06-04T10:29:08.212Z,1
2019-06-04T10:30:16.377Z,1
2019-06-04T10:31:23.597Z,1
2019-06-04T10:32:30.555Z,1
2019-06-04T10:33:37.770Z,1
2019-06-04T10:34:48.345Z,1
2019-06-04T10:36:05.562Z,1
2019-06-04T10:37:20.009Z,1
2019-06-04T10:38:29.423Z,1
2019-06-04T10:39:36.799Z,1
2019-06-04T10:40:45.580Z,1
2019-06-04T10:41:59.813Z,1
2019-06-04T10:43:07.036Z,1
2019-06-04T10:44:14.267Z,1
2019-06-04T10:45:21.528Z,1
2019-06-04T10:46:28.919Z,1
2019-06-04T10:47:36.134Z,1
2019-06-04T10:48:43.370Z,1
2019-06-04T10:49:53.014Z,1
2019-06-04T10:51:02.807Z,1
2019-06-04T10:52:10.037Z,1
2019-06-04T10:53:17.320Z,1
2019-06-04T10:54:24.767Z,1
2019-06-04T10:55:31.980Z,1
2019-06-04T10:56:39.202Z,1
2019-06-04T10:57:47.656Z,1
2019-06-04T10:58:57.862Z,1
2019-06-04T11:00:06.363Z,1
2019-06-04T11:01:13.581Z,1
2019-06-04T11:02:20.558Z,1
2019-06-04T11:03:27.774Z,1
2019-06-04T11:04:34.743Z,1
2019-06-04T11:05:41.965Z,1
2019-06-04T11:06:50.308Z,1
2019-06-04T11:08:00.743Z,1
2019-06-04T11:09:10.785Z,1
2019-06-04T11:10:18.433Z,1
2019-06-04T11:11:24.853Z,1
2019-06-04T11:12:32.119Z,1
2019-06-04T11:13:39.338Z,1
2019-06-04T11:14:47.760Z,1
2019-06-04T11:15:57.162Z,1
2019-06-04T11:17:05.633Z,1
2019-06-04T11:18:12.581Z,1
2019-06-04T11:19:19.809Z,1
2019-06-04T11:20:27.939Z,1
2019-06-04T11:21:39.580Z,1
2019-06-04T11:22:48.312Z,1
2019-06-04T11:23:56.891Z,1
2019-06-04T11:25:05.779Z,1
2019-06-04T11:26:13.017Z,1
2019-06-04T11:27:20.231Z,1
2019-06-04T11:28:27.452Z,1
2019-06-04T11:29:34.692Z,1
2019-06-04T11:30:41.909Z,1
2019-06-04T11:31:49.379Z,1
2019-06-04T11:32:57.946Z,1
2019-06-04T11:34:24.441Z,1
2019-06-04T11:35:32.077Z,1
2019-06-04T11:36:39.390Z,1
2019-06-04T11:37:46.614Z,1
2019-06-04T11:39:08.783Z,1
2019-06-04T11:40:30.821Z,1
2019-06-04T11:41:38.289Z,1
2019-06-04T11:42:45.541Z,1
2019-06-04T11:43:52.839Z,1
2019-06-04T11:45:20.160Z,1
2019-06-04T11:46:32.159Z,1
2019-06-04T11:47:39.177Z,1
2019-06-04T11:48:46.250Z,1
2019-06-04T11:49:53.539Z,1
2019-06-04T11:51:03.065Z,1
2019-06-04T11:52:10.468Z,1
2019-06-04T11:53:17.442Z,1
2019-06-04T11:54:24.713Z,1
2019-06-04T11:55:32.380Z,1
2019-06-04T11:56:39.807Z,1
2019-06-04T11:57:46.817Z,1
2019-06-04T11:58:55.552Z,1
2019-06-04T12:00:09.340Z,1
2019-06-04T12:01:18.665Z,1
2019-06-04T12:02:26.407Z,1
2019-06-04T12:03:33.713Z,1
2019-06-04T12:04:41.068Z,1
2019-06-04T12:05:48.523Z,1
2019-06-04T12:06:56.742Z,1
2019-06-04T12:08:09.852Z,1
2019-06-04T12:09:29.445Z,1
2019-06-04T12:10:38.423Z,1
2019-06-04T12:11:45.685Z,1
2019-06-04T12:13:48.748Z,1
2019-06-04T12:14:57.549Z,1
2019-06-04T12:16:10.234Z,1
2019-06-04T12:17:17.526Z,1
2019-06-04T12:18:24.512Z,1
2019-06-04T12:19:31.785Z,1
2019-06-04T12:20:39.097Z,1
2019-06-04T12:21:46.365Z,1
2019-06-04T12:23:25.809Z,1
2019-06-04T12:24:42.656Z,1
2019-06-04T12:25:49.375Z,1
2019-06-04T12:26:56.954Z,1
2019-06-04T12:28:10.675Z,1
2019-06-04T12:29:17.680Z,1
2019-06-04T12:30:24.950Z,1
2019-06-04T12:31:32.216Z,1
2019-06-04T12:32:39.474Z,1
2019-06-04T12:33:46.550Z,1
2019-06-04T12:34:54.386Z,1
2019-06-04T12:36:05.094Z,1
2019-06-04T12:37:12.495Z,1
2019-06-04T12:38:19.471Z,1
2019-06-04T12:39:26.873Z,1
2019-06-04T12:40:33.865Z,1
2019-06-04T12:41:41.141Z,1
2019-06-04T12:42:48.487Z,1
2019-06-04T12:44:03.000Z,1
2019-06-04T12:45:21.278Z,1
2019-06-04T12:46:28.535Z,1
2019-06-04T12:47:35.802Z,1
2019-06-04T12:48:43.064Z,1
2019-06-04T12:49:50.910Z,1
2019-06-04T12:50:59.320Z,1
2019-06-04T12:52:08.861Z,1
2019-06-04T12:53:18.288Z,1
2019-06-04T12:54:25.550Z,1
2019-06-04T12:55:32.554Z,1
2019-06-04T12:56:39.831Z,1
2019-06-04T12:57:47.088Z,1
2019-06-04T12:58:54.354Z,1
2019-06-04T13:00:02.308Z,1
2019-06-04T13:01:13.202Z,1
2019-06-04T13:02:26.484Z,1
2019-06-04T13:03:34.834Z,1
2019-06-04T13:04:42.104Z,1
2019-06-04T13:05:49.390Z,1
2019-06-04T13:06:56.421Z,1
2019-06-04T13:08:23.695Z,1
2019-06-04T13:09:34.675Z,1
2019-06-04T13:10:41.964Z,1
2019-06-04T13:11:49.225Z,1
2019-06-04T13:12:56.493Z,1
2019-06-04T13:14:06.262Z,1
2019-06-04T13:15:13.607Z,1
2019-06-04T13:16:20.669Z,1
2019-06-04T13:17:28.010Z,1
2019-06-04T13:18:35.270Z,1
2019-06-04T13:19:42.548Z,1
2019-06-04T13:20:49.831Z,1
2019-06-04T13:21:58.506Z,1
2019-06-04T13:23:11.682Z,1
2019-06-04T13:24:19.044Z,1
2019-06-04T13:25:26.306Z,1
2019-06-04T13:26:33.295Z,1
2019-06-04T13:27:40.796Z,1
2019-06-04T13:28:48.064Z,1
2019-06-04T13:29:55.039Z,1
2019-06-04T13:31:03.559Z,1
2019-06-04T13:32:13.631Z,1
2019-06-04T13:33:20.903Z,1
2019-06-04T13:34:28.176Z,1
2019-06-04T13:35:35.185Z,1
2019-06-04T13:36:42.461Z,1
2019-06-04T13:37:49.755Z,1
2019-06-04T13:38:57.030Z,1
2019-06-04T13:40:29.017Z,1
2019-06-04T13:41:37.388Z,1
2019-06-04T13:42:44.117Z,1
2019-06-04T13:43:51.382Z,1
2019-06-04T13:44:58.393Z,1
2019-06-04T13:46:07.279Z,1
2019-06-04T13:47:15.642Z,1
2019-06-04T13:49:44.576Z,1
2019-06-04T13:50:51.841Z,1
2019-06-04T13:51:59.110Z,1
2019-06-04T13:53:10.659Z,1
2019-06-04T13:54:30.759Z,1
2019-06-04T13:55:37.761Z,1
2019-06-04T13:56:45.037Z,1
2019-06-04T13:57:52.411Z,1
2019-06-04T13:59:00.252Z,1
2019-06-04T14:00:13.360Z,1
2019-06-04T14:01:20.703Z,1
2019-06-04T14:02:27.699Z,1
2019-06-04T14:03:34.967Z,1
2019-06-04T14:04:41.975Z,1
2019-06-04T14:05:49.276Z,1
2019-06-04T14:06:56.282Z,1
2019-06-04T14:08:03.552Z,1
2019-06-04T14:09:16.672Z,1
2019-06-04T14:10:24.277Z,1
2019-06-04T14:11:31.556Z,1
2019-06-04T14:12:38.566Z,1
2019-06-04T14:13:45.568Z,1
2019-06-04T14:14:52.589Z,1
2019-06-04T14:15:59.953Z,1
2019-06-04T14:17:08.033Z,1
2019-06-04T14:18:18.160Z,1
2019-06-04T14:19:25.461Z,1
2019-06-04T14:20:32.803Z,1
2019-06-04T14:21:39.526Z,1
2019-06-04T14:23:03.585Z,1
2019-06-04T14:24:28.545Z,1
2019-06-04T14:25:35.868Z,1
2019-06-04T14:26:43.152Z,1
2019-06-04T14:27:50.457Z,1
2019-06-04T14:28:57.838Z,1
2019-06-04T14:30:05.391Z,1
2019-06-04T14:31:15.643Z,1
2019-06-04T14:32:22.964Z,1
2019-06-04T14:33:30.259Z,1
2019-06-04T14:34:37.554Z,1
2019-06-04T14:35:44.581Z,1
2019-06-04T14:36:51.871Z,1
2019-06-04T14:37:59.367Z,1
2019-06-04T14:39:07.806Z,1
2019-06-04T14:40:28.936Z,1
2019-06-04T14:41:40.353Z,1
2019-06-04T14:42:47.635Z,1
2019-06-04T14:43:54.943Z,1
2019-06-04T14:45:02.045Z,1
2019-06-04T14:46:09.763Z,1
2019-06-04T14:47:20.263Z,1
2019-06-04T14:48:27.673Z,1
2019-06-04T14:49:35.206Z,1
2019-06-04T14:50:45.034Z,1
2019-06-04T14:51:52.650Z,1
2019-06-04T14:52:59.935Z,1
2019-06-04T14:54:09.265Z,1
2019-06-04T14:55:20.650Z,1
2019-06-04T14:56:27.990Z,1
2019-06-04T14:57:35.260Z,1
2019-06-04T14:58:42.263Z,1
2019-06-04T14:59:49.590Z,1
2019-06-04T15:00:56.881Z,1
2019-06-04T15:02:04.946Z,1
2019-06-04T15:03:13.434Z,1
2019-06-04T15:04:25.416Z,1
2019-06-04T15:05:32.684Z,1
2019-06-04T15:06:39.949Z,1
2019-06-04T15:08:01.621Z,1
2019-06-04T15:09:10.714Z,1
2019-06-04T15:10:20.026Z,1
2019-06-04T15:11:41.782Z,1
2019-06-04T15:12:54.149Z,1
2019-06-04T15:14:01.443Z,1
2019-06-04T15:15:09.660Z,1
2019-06-04T15:16:20.773Z,1
2019-06-04T15:17:28.195Z,1
2019-06-04T15:18:35.477Z,1
2019-06-04T15:19:42.494Z,1
2019-06-04T15:20:49.776Z,1
2019-06-04T15:21:57.077Z,1
2019-06-04T15:23:04.493Z,1
2019-06-04T15:24:12.683Z,1
2019-06-04T15:25:22.612Z,1
2019-06-04T15:26:29.886Z,1
2019-06-04T15:27:37.175Z,1
2019-06-04T15:28:44.470Z,1
2019-06-04T15:29:51.776Z,1
2019-06-04T15:30:59.058Z,1
2019-06-04T15:32:06.299Z,1
2019-06-04T15:33:14.163Z,1
2019-06-04T15:34:24.087Z,1
2019-06-04T15:35:31.383Z,1
2019-06-04T15:36:38.398Z,1
2019-06-04T15:37:45.693Z,1
2019-06-04T15:38:52.700Z,1
2019-06-04T15:40:00.018Z,1
2019-06-04T15:41:07.569Z,1
2019-06-04T15:42:14.880Z,1
2019-06-04T15:43:23.609Z,1
2019-06-04T15:44:30.890Z,1
2019-06-04T15:45:38.406Z,1
2019-06-04T15:46:45.670Z,1
2019-06-04T15:47:53.066Z,1
2019-06-04T15:49:00.541Z,1
2019-06-04T15:50:07.822Z,1
2019-06-04T15:51:16.394Z,1
2019-06-04T15:52:28.252Z,1
2019-06-04T15:53:35.275Z,1
2019-06-04T15:54:42.281Z,1
2019-06-04T15:55:52.681Z,1
2019-06-04T15:57:00.358Z,1
2019-06-04T15:58:07.645Z,1
2019-06-04T15:59:14.884Z,1
2019-06-04T16:00:26.645Z,1
2019-06-04T16:01:34.159Z,1
2019-06-04T16:02:41.462Z,1
2019-06-04T16:03:50.970Z,1
2019-06-04T16:04:58.497Z,1
2019-06-04T16:06:05.784Z,1
2019-06-04T16:07:13.073Z,1